sensor_id;sensor_type;location;lat;lon;timestamp;pressure;altitude;pressure_sealevel;temperature;humidity
59104;BME280;51449;51.676;5.812;2023-07-08T00:00:40;101602.09;;;22.34;44.91
59104;BME280;51449;51.676;5.812;2023-07-08T00:03:02;101600.47;;;22.33;45.01
59104;BME280;51449;51.676;5.812;2023-07-08T00:05:25;101599.28;;;22.34;45.23
59104;BME280;51449;51.676;5.812;2023-07-08T00:07:47;101594.03;;;22.29;45.13
59104;BME280;51449;51.676;5.812;2023-07-08T00:10:25;101594.44;;;22.27;45.12
59104;BME280;51449;51.676;5.812;2023-07-08T00:12:51;101592.81;;;22.26;45.00
59104;BME280;51449;51.676;5.812;2023-07-08T00:15:14;101587.63;;;22.25;45.00
59104;BME280;51449;51.676;5.812;2023-07-08T00:17:37;101577.97;;;22.26;44.92
59104;BME280;51449;51.676;5.812;2023-07-08T00:19:59;101585.19;;;22.23;45.08
59104;BME280;51449;51.676;5.812;2023-07-08T00:22:21;101584.34;;;22.19;44.94
59104;BME280;51449;51.676;5.812;2023-07-08T00:24:46;101585.53;;;22.14;44.91
59104;BME280;51449;51.676;5.812;2023-07-08T00:27:10;101587.94;;;22.12;45.16
59104;BME280;51449;51.676;5.812;2023-07-08T00:29:33;101584.31;;;22.08;44.88
59104;BME280;51449;51.676;5.812;2023-07-08T00:31:55;101576.28;;;22.03;45.10
59104;BME280;51449;51.676;5.812;2023-07-08T00:34:17;101579.88;;;22.00;45.41
59104;BME280;51449;51.676;5.812;2023-07-08T00:36:39;101579.03;;;21.96;45.29
59104;BME280;51449;51.676;5.812;2023-07-08T00:39:01;101567.41;;;21.94;45.50
59104;BME280;51449;51.676;5.812;2023-07-08T00:41:28;101575.03;;;21.90;45.52
59104;BME280;51449;51.676;5.812;2023-07-08T00:43:56;101573.78;;;21.84;45.47
59104;BME280;51449;51.676;5.812;2023-07-08T00:51:28;101574.88;;;21.65;45.82
59104;BME280;51449;51.676;5.812;2023-07-08T00:53:49;101574.06;;;21.64;46.18
59104;BME280;51449;51.676;5.812;2023-07-08T00:58:50;101578.84;;;21.56;46.84
59104;BME280;51449;51.676;5.812;2023-07-08T01:01:18;101575.19;;;21.52;46.83
59104;BME280;51449;51.676;5.812;2023-07-08T01:03:56;101569.59;;;21.49;46.96
59104;BME280;51449;51.676;5.812;2023-07-08T01:06:24;101579.97;;;21.48;47.03
59104;BME280;51449;51.676;5.812;2023-07-08T01:08:55;101568.38;;;21.46;46.76
59104;BME280;51449;51.676;5.812;2023-07-08T01:11:17;101563.94;;;21.45;46.88
59104;BME280;51449;51.676;5.812;2023-07-08T01:13:41;101557.53;;;21.45;47.17
59104;BME280;51449;51.676;5.812;2023-07-08T01:16:06;101566.72;;;21.42;47.20
59104;BME280;51449;51.676;5.812;2023-07-08T01:18:30;101566.31;;;21.40;47.16
59104;BME280;51449;51.676;5.812;2023-07-08T01:20:52;101572.72;;;21.40;47.07
59104;BME280;51449;51.676;5.812;2023-07-08T01:23:17;101563.44;;;21.36;47.38
59104;BME280;51449;51.676;5.812;2023-07-08T01:25:41;101561.03;;;21.34;47.31
59104;BME280;51449;51.676;5.812;2023-07-08T01:28:06;101562.22;;;21.30;47.13
59104;BME280;51449;51.676;5.812;2023-07-08T01:30:29;101559.78;;;21.28;47.63
59104;BME280;51449;51.676;5.812;2023-07-08T01:32:55;101555.38;;;21.27;47.56
59104;BME280;51449;51.676;5.812;2023-07-08T01:35:21;101555.81;;;21.29;47.47
59104;BME280;51449;51.676;5.812;2023-07-08T01:37:50;101558.59;;;21.29;47.80
59104;BME280;51449;51.676;5.812;2023-07-08T01:42:43;101550.63;;;21.31;47.60
59104;BME280;51449;51.676;5.812;2023-07-08T01:45:11;101553.41;;;21.31;47.78
59104;BME280;51449;51.676;5.812;2023-07-08T01:47:34;101542.59;;;21.33;47.87
59104;BME280;51449;51.676;5.812;2023-07-08T01:49:56;101547.81;;;21.35;47.70
59104;BME280;51449;51.676;5.812;2023-07-08T01:52:18;101542.25;;;21.38;47.43
59104;BME280;51449;51.676;5.812;2023-07-08T01:54:40;101546.22;;;21.37;47.37
59104;BME280;51449;51.676;5.812;2023-07-08T01:57:02;101539.84;;;21.37;47.73
59104;BME280;51449;51.676;5.812;2023-07-08T01:59:24;101540.63;;;21.37;47.72
59104;BME280;51449;51.676;5.812;2023-07-08T02:01:47;101531.81;;;21.35;48.00
59104;BME280;51449;51.676;5.812;2023-07-08T02:04:11;101535.41;;;21.36;47.48
59104;BME280;51449;51.676;5.812;2023-07-08T02:06:34;101526.59;;;21.34;47.52
59104;BME280;51449;51.676;5.812;2023-07-08T02:09:00;101529.38;;;21.30;47.66
59104;BME280;51449;51.676;5.812;2023-07-08T02:11:24;101520.53;;;21.25;48.04
59104;BME280;51449;51.676;5.812;2023-07-08T02:13:46;101520.91;;;21.20;48.15
59104;BME280;51449;51.676;5.812;2023-07-08T02:16:08;101527.25;;;21.13;48.27
59104;BME280;51449;51.676;5.812;2023-07-08T02:18:29;101519.22;;;21.08;48.26
59104;BME280;51449;51.676;5.812;2023-07-08T02:20:54;101521.97;;;21.01;48.64
59104;BME280;51449;51.676;5.812;2023-07-08T02:23:18;101522.31;;;20.95;48.50
59104;BME280;51449;51.676;5.812;2023-07-08T02:25:40;101529.09;;;20.91;48.74
59104;BME280;51449;51.676;5.812;2023-07-08T02:28:02;101525.06;;;20.88;48.82
59104;BME280;51449;51.676;5.812;2023-07-08T02:30:24;101523.44;;;20.84;48.92
59104;BME280;51449;51.676;5.812;2023-07-08T02:32:46;101518.19;;;20.82;48.61
59104;BME280;51449;51.676;5.812;2023-07-08T02:35:18;101512.22;;;20.80;48.58
59104;BME280;51449;51.676;5.812;2023-07-08T02:37:39;101508.97;;;20.78;48.77
59104;BME280;51449;51.676;5.812;2023-07-08T02:40:01;101505.75;;;20.76;48.78
59104;BME280;51449;51.676;5.812;2023-07-08T02:42:24;101498.53;;;20.75;49.08
59104;BME280;51449;51.676;5.812;2023-07-08T02:44:46;101509.72;;;20.75;48.83
59104;BME280;51449;51.676;5.812;2023-07-08T02:47:08;101506.53;;;20.73;49.26
59104;BME280;51449;51.676;5.812;2023-07-08T02:49:30;101511.72;;;20.71;49.50
59104;BME280;51449;51.676;5.812;2023-07-08T02:51:52;101508.50;;;20.69;49.57
59104;BME280;51449;51.676;5.812;2023-07-08T02:54:13;101505.66;;;20.65;49.36
59104;BME280;51449;51.676;5.812;2023-07-08T02:56:35;101503.25;;;20.64;49.98
59104;BME280;51449;51.676;5.812;2023-07-08T02:58:57;101508.81;;;20.60;49.69
59104;BME280;51449;51.676;5.812;2023-07-08T03:01:19;101511.13;;;20.55;49.49
59104;BME280;51449;51.676;5.812;2023-07-08T03:03:40;101509.91;;;20.48;49.58
59104;BME280;51449;51.676;5.812;2023-07-08T03:06:04;101512.28;;;20.46;49.77
59104;BME280;51449;51.676;5.812;2023-07-08T03:08:29;101510.22;;;20.43;49.83
59104;BME280;51449;51.676;5.812;2023-07-08T03:11:03;101510.22;;;20.43;49.83
59104;BME280;51449;51.676;5.812;2023-07-08T03:13:27;101506.53;;;20.36;49.70
59104;BME280;51449;51.676;5.812;2023-07-08T03:15:51;101509.69;;;20.30;49.97
59104;BME280;51449;51.676;5.812;2023-07-08T03:18:13;101506.91;;;20.30;50.19
59104;BME280;51449;51.676;5.812;2023-07-08T03:20:35;101514.50;;;20.30;49.97
59104;BME280;51449;51.676;5.812;2023-07-08T03:22:58;101514.06;;;20.28;50.09
59104;BME280;51449;51.676;5.812;2023-07-08T03:25:19;101517.22;;;20.23;50.35
59104;BME280;51449;51.676;5.812;2023-07-08T03:27:44;101514.75;;;20.18;50.59
59104;BME280;51449;51.676;5.812;2023-07-08T03:30:07;101517.13;;;20.12;50.50
59104;BME280;51449;51.676;5.812;2023-07-08T03:32:29;101522.66;;;20.08;50.74
59104;BME280;51449;51.676;5.812;2023-07-08T03:34:51;101517.81;;;20.05;51.02
59104;BME280;51449;51.676;5.812;2023-07-08T03:37:14;101523.00;;;20.03;51.11
59104;BME280;51449;51.676;5.812;2023-07-08T03:39:35;101521.41;;;20.02;51.55
59104;BME280;51449;51.676;5.812;2023-07-08T03:41:57;101515.81;;;20.02;51.17
59104;BME280;51449;51.676;5.812;2023-07-08T03:44:20;101528.16;;;20.01;51.45
59104;BME280;51449;51.676;5.812;2023-07-08T03:46:46;101528.16;;;20.01;51.40
59104;BME280;51449;51.676;5.812;2023-07-08T03:49:14;101519.34;;;19.99;51.39
59104;BME280;51449;51.676;5.812;2023-07-08T03:51:39;101516.94;;;19.98;51.35
59104;BME280;51449;51.676;5.812;2023-07-08T03:54:04;101522.47;;;19.94;51.28
59104;BME280;51449;51.676;5.812;2023-07-08T03:56:29;101529.63;;;19.92;51.52
59104;BME280;51449;51.676;5.812;2023-07-08T03:58:51;101528.47;;;19.93;51.49
59104;BME280;51449;51.676;5.812;2023-07-08T04:01:20;101525.69;;;19.96;51.61
59104;BME280;51449;51.676;5.812;2023-07-08T04:03:45;101530.13;;;19.97;51.78
59104;BME280;51449;51.676;5.812;2023-07-08T04:06:06;101523.34;;;19.98;51.57
59104;BME280;51449;51.676;5.812;2023-07-08T04:08:28;101531.72;;;19.98;51.88
59104;BME280;51449;51.676;5.812;2023-07-08T04:10:50;101522.91;;;19.96;51.67
59104;BME280;51449;51.676;5.812;2023-07-08T04:13:12;101527.72;;;19.99;51.72
59104;BME280;51449;51.676;5.812;2023-07-08T04:15:33;101523.38;;;20.02;51.75
59104;BME280;51449;51.676;5.812;2023-07-08T04:17:55;101523.78;;;20.04;52.14
59104;BME280;51449;51.676;5.812;2023-07-08T04:20:18;101521.41;;;20.06;51.81
59104;BME280;51449;51.676;5.812;2023-07-08T04:22:41;101521.41;;;20.02;52.06
59104;BME280;51449;51.676;5.812;2023-07-08T04:25:03;101520.19;;;20.03;51.95
59104;BME280;51449;51.676;5.812;2023-07-08T04:27:25;101518.19;;;20.04;52.05
59104;BME280;51449;51.676;5.812;2023-07-08T04:29:47;101517.81;;;20.05;52.33
59104;BME280;51449;51.676;5.812;2023-07-08T04:32:09;101522.66;;;20.08;52.36
59104;BME280;51449;51.676;5.812;2023-07-08T04:34:32;101527.06;;;20.09;52.33
59104;BME280;51449;51.676;5.812;2023-07-08T04:36:53;101522.72;;;20.12;52.43
59104;BME280;51449;51.676;5.812;2023-07-08T04:39:15;101525.09;;;20.14;52.61
59104;BME280;51449;51.676;5.812;2023-07-08T04:41:37;101532.75;;;20.17;52.28
59104;BME280;51449;51.676;5.812;2023-07-08T04:44:02;101535.22;;;20.22;52.70
59104;BME280;51449;51.676;5.812;2023-07-08T04:46:56;101542.47;;;20.26;52.49
59104;BME280;51449;51.676;5.812;2023-07-08T04:49:20;101534.44;;;20.25;53.01
59104;BME280;51449;51.676;5.812;2023-07-08T04:51:42;101540.88;;;20.29;52.93
59104;BME280;51449;51.676;5.812;2023-07-08T04:54:05;101525.34;;;20.35;52.61
59104;BME280;51449;51.676;5.812;2023-07-08T04:56:44;101529.78;;;20.40;52.58
59104;BME280;51449;51.676;5.812;2023-07-08T04:59:15;101521.41;;;20.43;52.59
59104;BME280;51449;51.676;5.812;2023-07-08T05:01:43;101530.22;;;20.45;53.06
59104;BME280;51449;51.676;5.812;2023-07-08T05:04:11;101525.47;;;20.46;52.80
59104;BME280;51449;51.676;5.812;2023-07-08T05:06:34;101521.91;;;20.52;52.87
59104;BME280;51449;51.676;5.812;2023-07-08T05:08:58;101516.41;;;20.60;52.93
59104;BME280;51449;51.676;5.812;2023-07-08T05:11:21;101521.22;;;20.63;52.58
59104;BME280;51449;51.676;5.812;2023-07-08T05:13:42;101521.28;;;20.66;52.51
59104;BME280;51449;51.676;5.812;2023-07-08T05:16:04;101516.13;;;20.72;52.32
59104;BME280;51449;51.676;5.812;2023-07-08T05:18:26;101517.81;;;20.80;52.48
59104;BME280;51449;51.676;5.812;2023-07-08T05:20:52;101520.66;;;20.87;52.45
59104;BME280;51449;51.676;5.812;2023-07-08T05:23:14;101517.94;;;20.98;51.99
59104;BME280;51449;51.676;5.812;2023-07-08T05:25:35;101516.00;;;21.06;52.01
59104;BME280;51449;51.676;5.812;2023-07-08T05:27:57;101518.84;;;21.13;51.88
59104;BME280;51449;51.676;5.812;2023-07-08T05:30:19;101514.47;;;21.15;52.26
59104;BME280;51449;51.676;5.812;2023-07-08T05:32:41;101527.72;;;21.26;51.94
59104;BME280;51449;51.676;5.812;2023-07-08T05:35:02;101530.22;;;21.34;51.77
59104;BME280;51449;51.676;5.812;2023-07-08T05:37:25;101531.88;;;21.43;51.81
59104;BME280;51449;51.676;5.812;2023-07-08T05:39:49;101524.72;;;21.49;51.66
59104;BME280;51449;51.676;5.812;2023-07-08T05:42:11;101537.56;;;21.57;52.17
59104;BME280;51449;51.676;5.812;2023-07-08T05:44:32;101532.00;;;21.64;51.62
59104;BME280;51449;51.676;5.812;2023-07-08T05:46:54;101520.03;;;21.71;51.45
59104;BME280;51449;51.676;5.812;2023-07-08T05:49:16;101520.06;;;21.78;51.38
59104;BME280;51449;51.676;5.812;2023-07-08T05:51:38;101516.88;;;21.87;51.45
59104;BME280;51449;51.676;5.812;2023-07-08T05:54:00;101516.91;;;21.94;51.87
59104;BME280;51449;51.676;5.812;2023-07-08T05:56:22;101521.75;;;22.00;51.13
59104;BME280;51449;51.676;5.812;2023-07-08T05:58:43;101525.75;;;22.03;51.44
59104;BME280;51449;51.676;5.812;2023-07-08T06:01:05;101515.75;;;22.02;51.42
59104;BME280;51449;51.676;5.812;2023-07-08T06:03:27;101523.34;;;22.01;51.27
59104;BME280;51449;51.676;5.812;2023-07-08T06:05:49;101529.78;;;22.02;51.46
59104;BME280;51449;51.676;5.812;2023-07-08T06:08:11;101529.78;;;22.02;51.43
59104;BME280;51449;51.676;5.812;2023-07-08T06:10:33;101533.38;;;22.02;51.40
59104;BME280;51449;51.676;5.812;2023-07-08T06:12:56;101527.34;;;22.04;51.42
59104;BME280;51449;51.676;5.812;2023-07-08T06:15:17;101528.59;;;22.10;51.62
59104;BME280;51449;51.676;5.812;2023-07-08T06:17:39;101518.97;;;22.18;51.74
59104;BME280;51449;51.676;5.812;2023-07-08T06:20:01;101529.44;;;22.29;51.50
59104;BME280;51449;51.676;5.812;2023-07-08T06:22:23;101527.50;;;22.36;51.38
59104;BME280;51449;51.676;5.812;2023-07-08T06:25:05;101533.13;;;22.47;51.45
59104;BME280;51449;51.676;5.812;2023-07-08T06:27:27;101531.13;;;22.55;51.11
59104;BME280;51449;51.676;5.812;2023-07-08T06:29:49;101537.56;;;22.66;51.64
59104;BME280;51449;51.676;5.812;2023-07-08T06:32:11;101532.72;;;22.77;51.46
59104;BME280;51449;51.676;5.812;2023-07-08T06:34:32;101527.53;;;22.86;51.05
59104;BME280;51449;51.676;5.812;2023-07-08T06:36:54;101533.97;;;22.98;50.97
59104;BME280;51449;51.676;5.812;2023-07-08T06:39:16;101537.19;;;23.11;50.73
59104;BME280;51449;51.676;5.812;2023-07-08T06:41:38;101531.94;;;23.23;50.69
59104;BME280;51449;51.676;5.812;2023-07-08T06:44:00;101529.91;;;23.35;50.80
59104;BME280;51449;51.676;5.812;2023-07-08T06:46:25;101531.06;;;23.48;50.17
59104;BME280;51449;51.676;5.812;2023-07-08T06:48:47;101529.03;;;23.59;50.04
59104;BME280;51449;51.676;5.812;2023-07-08T06:51:09;101523.41;;;23.74;49.86
59104;BME280;51449;51.676;5.812;2023-07-08T06:53:31;101528.94;;;23.91;49.45
59104;BME280;51449;51.676;5.812;2023-07-08T06:55:53;101522.06;;;24.07;49.26
59104;BME280;51449;51.676;5.812;2023-07-08T06:58:14;101523.56;;;24.22;49.41
59104;BME280;51449;51.676;5.812;2023-07-08T07:00:36;101516.63;;;24.38;48.81
59104;BME280;51449;51.676;5.812;2023-07-08T07:02:58;101511.72;;;24.52;48.50
59104;BME280;51449;51.676;5.812;2023-07-08T07:05:20;101509.19;;;24.69;47.99
59104;BME280;51449;51.676;5.812;2023-07-08T07:07:44;101503.41;;;24.87;48.13
59104;BME280;51449;51.676;5.812;2023-07-08T07:10:06;101510.47;;;25.06;47.32
59104;BME280;51449;51.676;5.812;2023-07-08T07:12:29;101515.16;;;25.23;47.26
59104;BME280;51449;51.676;5.812;2023-07-08T07:14:51;101510.94;;;25.42;47.24
59104;BME280;51449;51.676;5.812;2023-07-08T07:17:14;101514.38;;;25.60;46.62
59104;BME280;51449;51.676;5.812;2023-07-08T07:19:36;101516.56;;;25.76;46.35
59104;BME280;51449;51.676;5.812;2023-07-08T07:21:57;101510.72;;;25.94;45.90
59104;BME280;51449;51.676;5.812;2023-07-08T07:24:19;101516.97;;;26.09;45.87
59104;BME280;51449;51.676;5.812;2023-07-08T07:26:41;101519.56;;;26.27;45.08
59104;BME280;51449;51.676;5.812;2023-07-08T07:29:03;101512.03;;;26.44;44.97
59104;BME280;51449;51.676;5.812;2023-07-08T07:31:24;101511.84;;;26.58;44.60
59104;BME280;51449;51.676;5.812;2023-07-08T07:33:46;101509.59;;;26.73;44.33
59104;BME280;51449;51.676;5.812;2023-07-08T07:36:08;101508.97;;;26.85;43.01
59104;BME280;51449;51.676;5.812;2023-07-08T07:38:32;101499.50;;;26.96;42.91
59104;BME280;51449;51.676;5.812;2023-07-08T07:40:55;101503.78;;;27.04;42.43
59104;BME280;51449;51.676;5.812;2023-07-08T07:43:17;101502.88;;;27.10;41.35
59104;BME280;51449;51.676;5.812;2023-07-08T07:45:39;101502.38;;;27.16;41.32
59104;BME280;51449;51.676;5.812;2023-07-08T07:48:01;101513.16;;;27.24;41.20
59104;BME280;51449;51.676;5.812;2023-07-08T07:50:23;101502.50;;;27.32;41.40
59104;BME280;51449;51.676;5.812;2023-07-08T07:52:45;101510.25;;;27.48;42.07
59104;BME280;51449;51.676;5.812;2023-07-08T07:55:08;101515.22;;;27.64;41.70
59104;BME280;51449;51.676;5.812;2023-07-08T07:57:30;101501.13;;;27.80;42.06
59104;BME280;51449;51.676;5.812;2023-07-08T07:59:52;101496.34;;;27.97;41.98
59104;BME280;51449;51.676;5.812;2023-07-08T08:02:14;101508.22;;;28.08;41.59
59104;BME280;51449;51.676;5.812;2023-07-08T08:04:37;101506.00;;;28.16;40.78
59104;BME280;51449;51.676;5.812;2023-07-08T08:06:59;101510.38;;;28.21;40.69
59104;BME280;51449;51.676;5.812;2023-07-08T08:09:20;101511.81;;;28.29;41.07
59104;BME280;51449;51.676;5.812;2023-07-08T08:11:42;101505.09;;;28.39;40.84
59104;BME280;51449;51.676;5.812;2023-07-08T08:14:04;101501.22;;;28.49;40.28
59104;BME280;51449;51.676;5.812;2023-07-08T08:16:26;101516.03;;;28.57;39.95
59104;BME280;51449;51.676;5.812;2023-07-08T08:18:48;101513.44;;;28.63;40.30
59104;BME280;51449;51.676;5.812;2023-07-08T08:21:09;101514.41;;;28.72;40.19
59104;BME280;51449;51.676;5.812;2023-07-08T08:23:31;101521.16;;;28.78;39.30
59104;BME280;51449;51.676;5.812;2023-07-08T08:25:53;101516.91;;;28.87;39.29
59104;BME280;51449;51.676;5.812;2023-07-08T08:28:14;101513.09;;;28.93;39.22
59104;BME280;51449;51.676;5.812;2023-07-08T08:30:36;101514.84;;;29.03;39.27
59104;BME280;51449;51.676;5.812;2023-07-08T08:32:58;101529.22;;;29.13;39.08
59104;BME280;51449;51.676;5.812;2023-07-08T08:35:20;101527.78;;;29.21;38.56
59104;BME280;51449;51.676;5.812;2023-07-08T08:37:42;101523.06;;;29.31;38.50
59104;BME280;51449;51.676;5.812;2023-07-08T08:40:04;101528.81;;;29.43;38.81
59104;BME280;51449;51.676;5.812;2023-07-08T08:44:57;101533.94;;;29.78;38.45
59104;BME280;51449;51.676;5.812;2023-07-08T08:47:39;101534.75;;;29.91;37.67
59104;BME280;51449;51.676;5.812;2023-07-08T08:53:23;101525.44;;;29.91;37.79
59104;BME280;51449;51.676;5.812;2023-07-08T08:56:03;101526.13;;;29.95;37.56
59104;BME280;51449;51.676;5.812;2023-07-08T08:58:45;101528.50;;;29.96;36.96
59104;BME280;51449;51.676;5.812;2023-07-08T09:01:29;101527.38;;;30.06;37.13
59104;BME280;51449;51.676;5.812;2023-07-08T09:03:57;101537.53;;;30.20;36.58
59104;BME280;51449;51.676;5.812;2023-07-08T09:06:26;101528.56;;;30.35;36.89
59104;BME280;51449;51.676;5.812;2023-07-08T09:08:51;101530.72;;;30.56;36.92
59104;BME280;51449;51.676;5.812;2023-07-08T09:14:28;101520.56;;;30.93;36.07
59104;BME280;51449;51.676;5.812;2023-07-08T09:19:44;101520.94;;;31.18;35.60
59104;BME280;51449;51.676;5.812;2023-07-08T09:22:38;101524.75;;;31.37;35.78
59104;BME280;51449;51.676;5.812;2023-07-08T09:28:08;101529.00;;;31.76;34.92
59104;BME280;51449;51.676;5.812;2023-07-08T09:30:30;101530.66;;;31.86;34.93
59104;BME280;51449;51.676;5.812;2023-07-08T09:32:52;101527.53;;;31.93;34.62
59104;BME280;51449;51.676;5.812;2023-07-08T09:35:39;101532.44;;;32.15;34.61
59104;BME280;51449;51.676;5.812;2023-07-08T09:38:08;101527.38;;;32.19;34.27
59104;BME280;51449;51.676;5.812;2023-07-08T09:40:34;101524.38;;;32.23;34.14
59104;BME280;51449;51.676;5.812;2023-07-08T09:43:16;101527.44;;;32.37;33.94
59104;BME280;51449;51.676;5.812;2023-07-08T09:45:47;101523.84;;;32.46;33.42
59104;BME280;51449;51.676;5.812;2023-07-08T09:48:20;101524.50;;;32.50;33.02
59104;BME280;51449;51.676;5.812;2023-07-08T09:50:48;101522.25;;;32.45;32.68
59104;BME280;51449;51.676;5.812;2023-07-08T09:53:14;101532.44;;;32.55;32.58
59104;BME280;51449;51.676;5.812;2023-07-08T09:55:35;101522.34;;;32.64;32.60
59104;BME280;51449;51.676;5.812;2023-07-08T09:57:59;101516.50;;;32.76;32.80
59104;BME280;51449;51.676;5.812;2023-07-08T10:00:29;101520.47;;;32.88;32.75
59104;BME280;51449;51.676;5.812;2023-07-08T10:02:57;101511.75;;;33.01;32.60
59104;BME280;51449;51.676;5.812;2023-07-08T10:05:39;101512.91;;;33.13;32.41
59104;BME280;51449;51.676;5.812;2023-07-08T10:08:15;101517.03;;;33.21;32.60
59104;BME280;51449;51.676;5.812;2023-07-08T10:10:40;101510.84;;;33.22;31.93
59104;BME280;51449;51.676;5.812;2023-07-08T10:13:16;101510.69;;;33.26;31.77
59104;BME280;51449;51.676;5.812;2023-07-08T10:15:52;101512.75;;;33.35;31.47
59104;BME280;51449;51.676;5.812;2023-07-08T10:18:29;101511.16;;;33.43;31.61
59104;BME280;51449;51.676;5.812;2023-07-08T10:27:27;101499.53;;;33.74;31.22
59104;BME280;51449;51.676;5.812;2023-07-08T10:30:24;101497.78;;;33.77;30.29
59104;BME280;51449;51.676;5.812;2023-07-08T10:36:11;101496.81;;;33.80;29.63
59104;BME280;51449;51.676;5.812;2023-07-08T10:41:51;101499.50;;;33.93;30.22
59104;BME280;51449;51.676;5.812;2023-07-08T10:44:35;101491.19;;;34.04;29.67
59104;BME280;51449;51.676;5.812;2023-07-08T10:47:18;101498.63;;;34.20;30.07
59104;BME280;51449;51.676;5.812;2023-07-08T10:50:17;101504.56;;;34.40;30.62
59104;BME280;51449;51.676;5.812;2023-07-08T10:55:50;101501.94;;;34.61;29.43
59104;BME280;51449;51.676;5.812;2023-07-08T10:58:29;101501.13;;;34.60;29.56
59104;BME280;51449;51.676;5.812;2023-07-08T11:01:10;101491.91;;;34.65;29.67
59104;BME280;51449;51.676;5.812;2023-07-08T11:10:19;101494.88;;;34.95;28.85
59104;BME280;51449;51.676;5.812;2023-07-08T11:13:10;101504.31;;;35.10;28.08
59104;BME280;51449;51.676;5.812;2023-07-08T11:15:52;101501.06;;;35.18;27.87
59104;BME280;51449;51.676;5.812;2023-07-08T11:21:07;101495.66;;;35.34;28.16
59104;BME280;51449;51.676;5.812;2023-07-08T11:26:18;101494.91;;;35.49;28.17
59104;BME280;51449;51.676;5.812;2023-07-08T11:28:46;101496.47;;;35.50;28.12
59104;BME280;51449;51.676;5.812;2023-07-08T11:31:11;101500.25;;;35.56;28.48
59104;BME280;51449;51.676;5.812;2023-07-08T11:33:34;101499.88;;;35.63;27.97
59104;BME280;51449;51.676;5.812;2023-07-08T11:36:00;101488.69;;;35.65;27.58
59104;BME280;51449;51.676;5.812;2023-07-08T11:38:25;101490.97;;;35.61;27.21
59104;BME280;51449;51.676;5.812;2023-07-08T11:43:24;101487.97;;;35.55;28.14
59104;BME280;51449;51.676;5.812;2023-07-08T11:45:50;101487.00;;;35.58;28.24
59104;BME280;51449;51.676;5.812;2023-07-08T11:48:19;101480.59;;;35.64;27.42
59104;BME280;51449;51.676;5.812;2023-07-08T11:50:47;101478.22;;;35.62;27.13
59104;BME280;51449;51.676;5.812;2023-07-08T11:53:13;101475.34;;;35.62;27.34
59104;BME280;51449;51.676;5.812;2023-07-08T11:56:00;101475.03;;;35.75;26.95
59104;BME280;51449;51.676;5.812;2023-07-08T11:58:30;101476.13;;;35.77;26.02
59104;BME280;51449;51.676;5.812;2023-07-08T12:03:51;101475.72;;;35.85;26.62
59104;BME280;51449;51.676;5.812;2023-07-08T12:08:55;101470.19;;;35.96;27.13
59104;BME280;51449;51.676;5.812;2023-07-08T12:11:35;101471.06;;;36.02;26.70
59104;BME280;51449;51.676;5.812;2023-07-08T12:13:59;101463.81;;;36.07;26.64
59104;BME280;51449;51.676;5.812;2023-07-08T12:16:23;101465.03;;;36.15;26.53
59104;BME280;51449;51.676;5.812;2023-07-08T12:18:46;101468.75;;;36.21;26.22
59104;BME280;51449;51.676;5.812;2023-07-08T12:21:11;101462.47;;;36.17;25.76
59104;BME280;51449;51.676;5.812;2023-07-08T12:23:34;101461.22;;;36.24;25.69
59104;BME280;51449;51.676;5.812;2023-07-08T12:25:57;101456.97;;;36.34;25.55
59104;BME280;51449;51.676;5.812;2023-07-08T12:28:20;101458.13;;;36.42;25.00
59104;BME280;51449;51.676;5.812;2023-07-08T12:30:44;101458.97;;;36.48;24.64
59104;BME280;51449;51.676;5.812;2023-07-08T12:35:44;101452.63;;;36.59;24.49
59104;BME280;51449;51.676;5.812;2023-07-08T12:38:30;101435.19;;;36.62;23.76
59104;BME280;51449;51.676;5.812;2023-07-08T12:41:00;101435.75;;;36.67;23.72
59104;BME280;51449;51.676;5.812;2023-07-08T12:43:26;101434.03;;;36.75;23.91
59104;BME280;51449;51.676;5.812;2023-07-08T12:45:48;101429.59;;;36.74;23.62
59104;BME280;51449;51.676;5.812;2023-07-08T12:48:10;101423.53;;;36.72;23.88
59104;BME280;51449;51.676;5.812;2023-07-08T12:50:32;101428.78;;;36.73;23.46
59104;BME280;51449;51.676;5.812;2023-07-08T12:52:54;101431.44;;;36.77;23.86
59104;BME280;51449;51.676;5.812;2023-07-08T12:55:17;101429.16;;;36.81;23.46
59104;BME280;51449;51.676;5.812;2023-07-08T12:57:45;101430.41;;;36.80;23.52
59104;BME280;51449;51.676;5.812;2023-07-08T13:00:14;101425.84;;;36.88;24.06
59104;BME280;51449;51.676;5.812;2023-07-08T13:02:40;101427.28;;;37.04;24.65
59104;BME280;51449;51.676;5.812;2023-07-08T13:05:06;101424.34;;;37.19;24.31
59104;BME280;51449;51.676;5.812;2023-07-08T13:07:38;101428.91;;;37.31;23.41
59104;BME280;51449;51.676;5.812;2023-07-08T13:10:05;101424.75;;;37.32;23.19
59104;BME280;51449;51.676;5.812;2023-07-08T13:12:31;101420.28;;;37.31;23.40
59104;BME280;51449;51.676;5.812;2023-07-08T13:14:59;101425.78;;;37.29;23.46
59104;BME280;51449;51.676;5.812;2023-07-08T13:17:21;101427.50;;;37.21;23.26
59104;BME280;51449;51.676;5.812;2023-07-08T13:19:44;101426.22;;;37.22;23.12
59104;BME280;51449;51.676;5.812;2023-07-08T13:22:14;101427.50;;;37.21;23.21
59104;BME280;51449;51.676;5.812;2023-07-08T13:24:39;101426.50;;;37.24;23.47
59104;BME280;51449;51.676;5.812;2023-07-08T13:27:04;101429.19;;;37.33;23.05
59104;BME280;51449;51.676;5.812;2023-07-08T13:29:44;101428.19;;;37.36;22.47
59104;BME280;51449;51.676;5.812;2023-07-08T13:32:09;101425.38;;;37.42;23.06
59104;BME280;51449;51.676;5.812;2023-07-08T13:34:32;101424.13;;;37.48;22.42
59104;BME280;51449;51.676;5.812;2023-07-08T13:36:54;101426.56;;;37.56;22.57
59104;BME280;51449;51.676;5.812;2023-07-08T13:39:20;101428.97;;;37.63;22.52
59104;BME280;51449;51.676;5.812;2023-07-08T13:41:48;101426.63;;;37.67;22.33
59104;BME280;51449;51.676;5.812;2023-07-08T13:44:13;101427.72;;;37.69;21.93